sensor_id;sensor_type;location;lat;lon;timestamp;P1;durP1;ratioP1;P2;durP2;ratioP2
64022;SDS011;50264;52.088;5.296;2023-03-30T00:00:10;9.0;;;4.61;;
64022;SDS011;50264;52.088;5.296;2023-03-30T00:03:24;9.71;;;5.11;;
64022;SDS011;50264;52.088;5.296;2023-03-30T00:05:01;8.31;;;4.41;;
64022;SDS011;50264;52.088;5.296;2023-03-30T00:06:37;8.9;;;4.3;;
64022;SDS011;50264;52.088;5.296;2023-03-30T00:09:49;7.4;;;4.61;;
64022;SDS011;50264;52.088;5.296;2023-03-30T00:11:26;7.7;;;4.0;;
64022;SDS011;50264;52.088;5.296;2023-03-30T00:13:03;9.9;;;4.5;;
64022;SDS011;50264;52.088;5.296;2023-03-30T00:14:40;8.9;;;4.0;;
64022;SDS011;50264;52.088;5.296;2023-03-30T00:17:53;6.9;;;4.5;;
64022;SDS011;50264;52.088;5.296;2023-03-30T00:19:29;8.1;;;4.41;;
64022;SDS011;50264;52.088;5.296;2023-03-30T00:21:05;8.71;;;4.3;;
64022;SDS011;50264;52.088;5.296;2023-03-30T00:24:21;7.3;;;3.8;;
64022;SDS011;50264;52.088;5.296;2023-03-30T00:25:58;10.0;;;4.41;;
64022;SDS011;50264;52.088;5.296;2023-03-30T00:27:35;7.9;;;4.1;;
64022;SDS011;50264;52.088;5.296;2023-03-30T00:29:12;7.7;;;4.3;;
64022;SDS011;50264;52.088;5.296;2023-03-30T00:32:24;6.8;;;4.0;;
64022;SDS011;50264;52.088;5.296;2023-03-30T00:34:00;6.5;;;4.1;;
64022;SDS011;50264;52.088;5.296;2023-03-30T00:35:36;9.81;;;4.5;;
64022;SDS011;50264;52.088;5.296;2023-03-30T00:38:49;8.1;;;4.2;;
64022;SDS011;50264;52.088;5.296;2023-03-30T00:40:25;5.7;;;3.4;;
64022;SDS011;50264;52.088;5.296;2023-03-30T00:42:01;5.6;;;4.1;;
64022;SDS011;50264;52.088;5.296;2023-03-30T00:45:30;6.5;;;3.7;;
64022;SDS011;50264;52.088;5.296;2023-03-30T00:47:07;9.71;;;4.2;;
64022;SDS011;50264;52.088;5.296;2023-03-30T00:48:44;6.1;;;3.9;;
64022;SDS011;50264;52.088;5.296;2023-03-30T00:50:21;10.3;;;4.1;;
64022;SDS011;50264;52.088;5.296;2023-03-30T00:53:37;7.7;;;3.8;;
64022;SDS011;50264;52.088;5.296;2023-03-30T00:55:17;11.2;;;4.2;;
64022;SDS011;50264;52.088;5.296;2023-03-30T00:56:57;10.21;;;3.8;;
64022;SDS011;50264;52.088;5.296;2023-03-30T00:58:34;11.7;;;3.6;;
64022;SDS011;50264;52.088;5.296;2023-03-30T01:01:50;10.4;;;3.4;;
64022;SDS011;50264;52.088;5.296;2023-03-30T01:03:27;4.8;;;3.6;;
64022;SDS011;50264;52.088;5.296;2023-03-30T01:05:07;6.1;;;3.5;;
64022;SDS011;50264;52.088;5.296;2023-03-30T01:08:23;8.2;;;3.4;;
64022;SDS011;50264;52.088;5.296;2023-03-30T01:10:01;6.2;;;3.6;;
64022;SDS011;50264;52.088;5.296;2023-03-30T01:11:38;5.5;;;3.9;;
64022;SDS011;50264;52.088;5.296;2023-03-30T01:13:15;5.6;;;3.5;;
64022;SDS011;50264;52.088;5.296;2023-03-30T01:16:29;5.4;;;3.3;;
64022;SDS011;50264;52.088;5.296;2023-03-30T01:18:18;5.5;;;3.3;;
64022;SDS011;50264;52.088;5.296;2023-03-30T01:20:27;8.81;;;3.1;;
64022;SDS011;50264;52.088;5.296;2023-03-30T01:23:52;5.11;;;3.1;;
64022;SDS011;50264;52.088;5.296;2023-03-30T01:28:24;7.6;;;3.3;;
64022;SDS011;50264;52.088;5.296;2023-03-30T01:30:25;6.2;;;3.2;;
64022;SDS011;50264;52.088;5.296;2023-03-30T01:32:23;6.5;;;3.0;;
64022;SDS011;50264;52.088;5.296;2023-03-30T01:36:16;5.5;;;3.1;;
64022;SDS011;50264;52.088;5.296;2023-03-30T01:39:14;5.8;;;3.0;;
64022;SDS011;50264;52.088;5.296;2023-03-30T01:41:30;7.4;;;3.5;;
64022;SDS011;50264;52.088;5.296;2023-03-30T01:43:13;10.4;;;3.4;;
64022;SDS011;50264;52.088;5.296;2023-03-30T01:44:54;5.0;;;2.9;;
64022;SDS011;50264;52.088;5.296;2023-03-30T01:46:40;6.9;;;3.3;;
64022;SDS011;50264;52.088;5.296;2023-03-30T01:50:06;6.0;;;3.0;;
64022;SDS011;50264;52.088;5.296;2023-03-30T01:51:50;8.9;;;3.5;;
64022;SDS011;50264;52.088;5.296;2023-03-30T01:53:43;6.4;;;2.7;;
64022;SDS011;50264;52.088;5.296;2023-03-30T01:55:27;6.0;;;3.2;;
64022;SDS011;50264;52.088;5.296;2023-03-30T01:57:11;4.61;;;2.7;;
64022;SDS011;50264;52.088;5.296;2023-03-30T02:00:32;5.2;;;2.7;;
64022;SDS011;50264;52.088;5.296;2023-03-30T02:02:11;10.6;;;3.2;;
64022;SDS011;50264;52.088;5.296;2023-03-30T02:03:50;4.0;;;2.7;;
64022;SDS011;50264;52.088;5.296;2023-03-30T02:05:31;7.4;;;3.4;;
64022;SDS011;50264;52.088;5.296;2023-03-30T02:08:50;5.0;;;2.8;;
64022;SDS011;50264;52.088;5.296;2023-03-30T02:10:30;8.6;;;3.2;;
64022;SDS011;50264;52.088;5.296;2023-03-30T02:12:10;7.1;;;2.8;;
64022;SDS011;50264;52.088;5.296;2023-03-30T02:13:48;8.31;;;3.0;;
64022;SDS011;50264;52.088;5.296;2023-03-30T02:17:14;4.91;;;2.7;;
64022;SDS011;50264;52.088;5.296;2023-03-30T02:18:54;6.6;;;2.7;;
64022;SDS011;50264;52.088;5.296;2023-03-30T02:20:30;6.4;;;2.7;;
64022;SDS011;50264;52.088;5.296;2023-03-30T02:23:43;5.3;;;3.0;;
64022;SDS011;50264;52.088;5.296;2023-03-30T02:25:20;5.9;;;2.9;;
64022;SDS011;50264;52.088;5.296;2023-03-30T02:26:57;2.9;;;2.6;;
64022;SDS011;50264;52.088;5.296;2023-03-30T02:28:35;6.5;;;2.8;;
64022;SDS011;50264;52.088;5.296;2023-03-30T02:31:48;6.2;;;3.0;;
64022;SDS011;50264;52.088;5.296;2023-03-30T02:33:30;6.7;;;2.8;;
64022;SDS011;50264;52.088;5.296;2023-03-30T02:35:26;7.3;;;3.0;;
64022;SDS011;50264;52.088;5.296;2023-03-30T02:37:23;7.6;;;2.8;;
64022;SDS011;50264;52.088;5.296;2023-03-30T02:40:18;7.2;;;3.3;;
64022;SDS011;50264;52.088;5.296;2023-03-30T02:42:12;6.2;;;3.0;;
64022;SDS011;50264;52.088;5.296;2023-03-30T02:44:13;11.3;;;3.9;;
64022;SDS011;50264;52.088;5.296;2023-03-30T02:46:04;4.91;;;2.31;;
64022;SDS011;50264;52.088;5.296;2023-03-30T02:47:56;5.8;;;2.8;;
64022;SDS011;50264;52.088;5.296;2023-03-30T02:49:49;6.0;;;2.9;;
64022;SDS011;50264;52.088;5.296;2023-03-30T02:51:34;3.0;;;2.6;;
64022;SDS011;50264;52.088;5.296;2023-03-30T02:55:08;8.31;;;2.8;;
64022;SDS011;50264;52.088;5.296;2023-03-30T02:56:52;5.11;;;3.1;;
64022;SDS011;50264;52.088;5.296;2023-03-30T02:58:38;8.0;;;2.6;;
64022;SDS011;50264;52.088;5.296;2023-03-30T03:00:21;6.5;;;2.8;;
64022;SDS011;50264;52.088;5.296;2023-03-30T03:02:03;7.2;;;2.9;;
64022;SDS011;50264;52.088;5.296;2023-03-30T03:05:27;6.0;;;2.7;;
64022;SDS011;50264;52.088;5.296;2023-03-30T03:07:04;9.81;;;2.7;;
64022;SDS011;50264;52.088;5.296;2023-03-30T03:08:41;8.2;;;2.6;;
64022;SDS011;50264;52.088;5.296;2023-03-30T03:10:19;5.9;;;2.4;;
64022;SDS011;50264;52.088;5.296;2023-03-30T03:13:32;5.11;;;2.7;;
64022;SDS011;50264;52.088;5.296;2023-03-30T03:15:09;6.0;;;2.5;;
64022;SDS011;50264;52.088;5.296;2023-03-30T03:16:46;10.9;;;2.6;;
64022;SDS011;50264;52.088;5.296;2023-03-30T03:19:59;5.7;;;2.8;;
64022;SDS011;50264;52.088;5.296;2023-03-30T03:21:35;5.8;;;2.6;;
64022;SDS011;50264;52.088;5.296;2023-03-30T03:23:11;7.3;;;3.0;;
64022;SDS011;50264;52.088;5.296;2023-03-30T03:26:23;5.4;;;2.6;;
64022;SDS011;50264;52.088;5.296;2023-03-30T03:27:59;7.0;;;2.7;;
64022;SDS011;50264;52.088;5.296;2023-03-30T03:29:36;9.21;;;2.5;;
64022;SDS011;50264;52.088;5.296;2023-03-30T03:31:12;8.71;;;2.4;;
64022;SDS011;50264;52.088;5.296;2023-03-30T03:34:25;4.41;;;2.21;;
64022;SDS011;50264;52.088;5.296;2023-03-30T03:36:01;9.9;;;2.6;;
64022;SDS011;50264;52.088;5.296;2023-03-30T03:37:38;6.3;;;2.1;;
64022;SDS011;50264;52.088;5.296;2023-03-30T03:40:51;5.4;;;2.1;;
64022;SDS011;50264;52.088;5.296;2023-03-30T03:42:29;9.1;;;2.7;;
64022;SDS011;50264;52.088;5.296;2023-03-30T03:44:05;7.7;;;2.5;;
64022;SDS011;50264;52.088;5.296;2023-03-30T03:47:17;8.6;;;2.5;;
64022;SDS011;50264;52.088;5.296;2023-03-30T03:48:53;3.2;;;2.1;;
64022;SDS011;50264;52.088;5.296;2023-03-30T03:50:29;9.9;;;2.31;;
64022;SDS011;50264;52.088;5.296;2023-03-30T03:52:05;7.0;;;2.21;;
64022;SDS011;50264;52.088;5.296;2023-03-30T03:55:17;7.2;;;2.0;;
64022;SDS011;50264;52.088;5.296;2023-03-30T03:56:54;5.0;;;2.21;;
64022;SDS011;50264;52.088;5.296;2023-03-30T03:58:30;3.4;;;1.8;;
64022;SDS011;50264;52.088;5.296;2023-03-30T04:01:44;7.0;;;2.4;;
64022;SDS011;50264;52.088;5.296;2023-03-30T04:03:20;4.1;;;2.0;;
64022;SDS011;50264;52.088;5.296;2023-03-30T04:04:56;7.7;;;1.7;;
64022;SDS011;50264;52.088;5.296;2023-03-30T04:08:09;6.5;;;1.9;;
64022;SDS011;50264;52.088;5.296;2023-03-30T04:09:45;7.2;;;1.8;;
64022;SDS011;50264;52.088;5.296;2023-03-30T04:11:22;4.5;;;1.8;;
64022;SDS011;50264;52.088;5.296;2023-03-30T04:14:34;4.8;;;2.0;;
64022;SDS011;50264;52.088;5.296;2023-03-30T04:16:10;5.7;;;2.31;;
64022;SDS011;50264;52.088;5.296;2023-03-30T04:17:46;8.4;;;2.5;;
64022;SDS011;50264;52.088;5.296;2023-03-30T04:19:22;6.7;;;2.31;;
64022;SDS011;50264;52.088;5.296;2023-03-30T04:22:37;7.9;;;2.7;;
64022;SDS011;50264;52.088;5.296;2023-03-30T04:24:14;8.1;;;2.4;;
64022;SDS011;50264;52.088;5.296;2023-03-30T04:25:50;6.5;;;2.31;;
64022;SDS011;50264;52.088;5.296;2023-03-30T04:29:02;6.6;;;2.31;;
64022;SDS011;50264;52.088;5.296;2023-03-30T04:30:38;7.3;;;2.21;;
64022;SDS011;50264;52.088;5.296;2023-03-30T04:32:14;6.8;;;2.31;;
64022;SDS011;50264;52.088;5.296;2023-03-30T04:35:27;5.5;;;2.5;;
64022;SDS011;50264;52.088;5.296;2023-03-30T04:37:05;5.9;;;2.31;;
64022;SDS011;50264;52.088;5.296;2023-03-30T04:38:41;5.8;;;2.21;;
64022;SDS011;50264;52.088;5.296;2023-03-30T04:40:17;6.0;;;2.31;;
64022;SDS011;50264;52.088;5.296;2023-03-30T04:43:29;11.3;;;2.7;;
64022;SDS011;50264;52.088;5.296;2023-03-30T04:45:06;8.81;;;2.8;;
64022;SDS011;50264;52.088;5.296;2023-03-30T04:46:43;5.3;;;2.4;;
64022;SDS011;50264;52.088;5.296;2023-03-30T04:49:58;11.4;;;2.7;;
64022;SDS011;50264;52.088;5.296;2023-03-30T04:51:34;8.71;;;2.6;;
64022;SDS011;50264;52.088;5.296;2023-03-30T04:53:10;6.2;;;2.7;;
64022;SDS011;50264;52.088;5.296;2023-03-30T04:56:23;5.7;;;1.9;;
64022;SDS011;50264;52.088;5.296;2023-03-30T04:57:59;6.8;;;2.31;;
64022;SDS011;50264;52.088;5.296;2023-03-30T04:59:35;8.9;;;2.7;;
64022;SDS011;50264;52.088;5.296;2023-03-30T05:01:11;5.2;;;1.8;;
64022;SDS011;50264;52.088;5.296;2023-03-30T05:04:25;4.5;;;2.0;;
64022;SDS011;50264;52.088;5.296;2023-03-30T05:06:01;7.1;;;2.5;;
64022;SDS011;50264;52.088;5.296;2023-03-30T05:07:37;6.6;;;2.31;;
64022;SDS011;50264;52.088;5.296;2023-03-30T05:10:49;11.5;;;2.7;;
64022;SDS011;50264;52.088;5.296;2023-03-30T05:12:25;5.4;;;2.4;;
64022;SDS011;50264;52.088;5.296;2023-03-30T05:14:01;4.91;;;2.4;;
64022;SDS011;50264;52.088;5.296;2023-03-30T05:17:14;5.4;;;2.4;;
64022;SDS011;50264;52.088;5.296;2023-03-30T05:18:50;6.7;;;2.6;;
64022;SDS011;50264;52.088;5.296;2023-03-30T05:20:26;8.31;;;3.1;;
64022;SDS011;50264;52.088;5.296;2023-03-30T05:23:38;8.9;;;2.9;;
64022;SDS011;50264;52.088;5.296;2023-03-30T05:25:14;7.9;;;2.9;;
64022;SDS011;50264;52.088;5.296;2023-03-30T05:26:51;9.9;;;3.0;;
64022;SDS011;50264;52.088;5.296;2023-03-30T05:28:28;12.7;;;3.4;;
64022;SDS011;50264;52.088;5.296;2023-03-30T05:31:42;11.6;;;3.6;;
64022;SDS011;50264;52.088;5.296;2023-03-30T05:33:18;8.9;;;3.7;;
64022;SDS011;50264;52.088;5.296;2023-03-30T05:34:54;10.7;;;3.3;;
64022;SDS011;50264;52.088;5.296;2023-03-30T05:38:06;9.5;;;3.3;;
64022;SDS011;50264;52.088;5.296;2023-03-30T05:39:42;7.9;;;3.5;;
64022;SDS011;50264;52.088;5.296;2023-03-30T05:41:19;9.21;;;3.3;;
64022;SDS011;50264;52.088;5.296;2023-03-30T05:44:31;10.0;;;3.6;;
64022;SDS011;50264;52.088;5.296;2023-03-30T05:46:07;11.8;;;4.0;;
64022;SDS011;50264;52.088;5.296;2023-03-30T05:47:43;17.61;;;3.9;;
64022;SDS011;50264;52.088;5.296;2023-03-30T05:49:19;10.7;;;3.4;;
64022;SDS011;50264;52.088;5.296;2023-03-30T05:52:31;8.81;;;3.7;;
64022;SDS011;50264;52.088;5.296;2023-03-30T05:54:09;13.9;;;4.1;;
64022;SDS011;50264;52.088;5.296;2023-03-30T05:55:46;7.5;;;3.7;;
64022;SDS011;50264;52.088;5.296;2023-03-30T05:59:00;11.0;;;4.2;;
64022;SDS011;50264;52.088;5.296;2023-03-30T06:00:36;8.1;;;3.9;;
64022;SDS011;50264;52.088;5.296;2023-03-30T06:02:12;16.0;;;4.0;;
64022;SDS011;50264;52.088;5.296;2023-03-30T06:05:24;11.3;;;4.1;;
64022;SDS011;50264;52.088;5.296;2023-03-30T06:07:01;11.7;;;4.2;;
64022;SDS011;50264;52.088;5.296;2023-03-30T06:08:37;12.0;;;4.0;;
64022;SDS011;50264;52.088;5.296;2023-03-30T06:10:14;18.3;;;4.5;;
64022;SDS011;50264;52.088;5.296;2023-03-30T06:13:26;12.1;;;4.0;;
64022;SDS011;50264;52.088;5.296;2023-03-30T06:15:02;14.0;;;4.3;;
64022;SDS011;50264;52.088;5.296;2023-03-30T06:16:38;15.7;;;4.91;;
64022;SDS011;50264;52.088;5.296;2023-03-30T06:19:50;17.41;;;4.5;;
64022;SDS011;50264;52.088;5.296;2023-03-30T06:21:27;13.7;;;4.1;;
64022;SDS011;50264;52.088;5.296;2023-03-30T06:23:04;14.1;;;4.61;;
64022;SDS011;50264;52.088;5.296;2023-03-30T06:26:16;14.0;;;3.7;;
64022;SDS011;50264;52.088;5.296;2023-03-30T06:27:52;17.3;;;4.41;;
64022;SDS011;50264;52.088;5.296;2023-03-30T06:29:28;10.4;;;3.6;;
64022;SDS011;50264;52.088;5.296;2023-03-30T06:31:08;16.0;;;5.2;;
64022;SDS011;50264;52.088;5.296;2023-03-30T06:34:21;14.2;;;4.61;;
64022;SDS011;50264;52.088;5.296;2023-03-30T06:35:57;15.7;;;4.91;;
64022;SDS011;50264;52.088;5.296;2023-03-30T06:37:33;13.9;;;4.1;;
64022;SDS011;50264;52.088;5.296;2023-03-30T06:40:47;13.9;;;4.1;;
64022;SDS011;50264;52.088;5.296;2023-03-30T06:42:25;15.1;;;4.0;;
64022;SDS011;50264;52.088;5.296;2023-03-30T06:44:01;16.3;;;4.5;;
64022;SDS011;50264;52.088;5.296;2023-03-30T06:47:14;16.2;;;4.5;;
64022;SDS011;50264;52.088;5.296;2023-03-30T06:48:50;20.11;;;4.91;;
64022;SDS011;50264;52.088;5.296;2023-03-30T06:50:27;17.91;;;4.7;;
64022;SDS011;50264;52.088;5.296;2023-03-30T06:52:03;15.9;;;4.41;;
64022;SDS011;50264;52.088;5.296;2023-03-30T06:55:15;23.4;;;5.3;;
64022;SDS011;50264;52.088;5.296;2023-03-30T06:56:51;14.7;;;4.91;;
64022;SDS011;50264;52.088;5.296;2023-03-30T06:58:28;19.8;;;5.2;;
64022;SDS011;50264;52.088;5.296;2023-03-30T07:01:43;24.1;;;5.4;;
64022;SDS011;50264;52.088;5.296;2023-03-30T07:03:19;18.0;;;5.0;;
64022;SDS011;50264;52.088;5.296;2023-03-30T07:04:55;17.0;;;4.61;;
64022;SDS011;50264;52.088;5.296;2023-03-30T07:08:07;27.4;;;5.11;;
64022;SDS011;50264;52.088;5.296;2023-03-30T07:09:43;21.9;;;5.3;;
64022;SDS011;50264;52.088;5.296;2023-03-30T07:11:20;20.8;;;5.3;;
64022;SDS011;50264;52.088;5.296;2023-03-30T07:12:56;20.2;;;5.3;;
64022;SDS011;50264;52.088;5.296;2023-03-30T07:16:08;20.7;;;5.4;;
64022;SDS011;50264;52.088;5.296;2023-03-30T07:17:44;23.7;;;5.5;;
64022;SDS011;50264;52.088;5.296;2023-03-30T07:19:20;19.61;;;5.3;;
64022;SDS011;50264;52.088;5.296;2023-03-30T07:22:33;21.0;;;5.5;;
64022;SDS011;50264;52.088;5.296;2023-03-30T07:24:10;20.7;;;5.0;;
64022;SDS011;50264;52.088;5.296;2023-03-30T07:25:46;23.1;;;5.11;;
64022;SDS011;50264;52.088;5.296;2023-03-30T07:28:58;20.3;;;5.2;;
64022;SDS011;50264;52.088;5.296;2023-03-30T07:30:34;20.3;;;5.3;;
64022;SDS011;50264;52.088;5.296;2023-03-30T07:32:11;20.5;;;5.11;;
64022;SDS011;50264;52.088;5.296;2023-03-30T07:35:24;21.7;;;5.9;;
64022;SDS011;50264;52.088;5.296;2023-03-30T07:37:00;22.2;;;5.0;;
64022;SDS011;50264;52.088;5.296;2023-03-30T07:38:36;19.41;;;5.2;;
64022;SDS011;50264;52.088;5.296;2023-03-30T07:40:12;17.5;;;5.3;;
64022;SDS011;50264;52.088;5.296;2023-03-30T07:43:24;13.6;;;5.2;;
64022;SDS011;50264;52.088;5.296;2023-03-30T07:45:01;20.5;;;5.8;;
64022;SDS011;50264;52.088;5.296;2023-03-30T07:46:37;20.3;;;5.11;;
64022;SDS011;50264;52.088;5.296;2023-03-30T07:49:49;21.5;;;5.6;;
64022;SDS011;50264;52.088;5.296;2023-03-30T07:51:25;17.11;;;5.0;;
64022;SDS011;50264;52.088;5.296;2023-03-30T07:53:01;21.7;;;4.91;;
64022;SDS011;50264;52.088;5.296;2023-03-30T07:56:14;20.2;;;5.3;;
64022;SDS011;50264;52.088;5.296;2023-03-30T07:57:51;19.41;;;5.3;;
64022;SDS011;50264;52.088;5.296;2023-03-30T07:59:27;27.9;;;5.8;;
64022;SDS011;50264;52.088;5.296;2023-03-30T08:01:03;19.41;;;5.5;;
64022;SDS011;50264;52.088;5.296;2023-03-30T08:04:15;20.11;;;5.0;;
64022;SDS011;50264;52.088;5.296;2023-03-30T08:05:52;21.2;;;5.4;;
64022;SDS011;50264;52.088;5.296;2023-03-30T08:07:29;25.6;;;6.0;;
64022;SDS011;50264;52.088;5.296;2023-03-30T08:10:44;24.3;;;5.5;;
64022;SDS011;50264;52.088;5.296;2023-03-30T08:12:20;22.8;;;5.2;;
64022;SDS011;50264;52.088;5.296;2023-03-30T08:13:56;21.8;;;5.4;;
64022;SDS011;50264;52.088;5.296;2023-03-30T08:17:08;18.5;;;5.3;;
64022;SDS011;50264;52.088;5.296;2023-03-30T08:18:44;21.0;;;5.5;;
64022;SDS011;50264;52.088;5.296;2023-03-30T08:20:20;15.8;;;5.8;;
64022;SDS011;50264;52.088;5.296;2023-03-30T08:23:32;18.8;;;5.11;;
64022;SDS011;50264;52.088;5.296;2023-03-30T08:25:08;24.5;;;5.7;;
64022;SDS011;50264;52.088;5.296;2023-03-30T08:26:46;26.5;;;6.2;;
64022;SDS011;50264;52.088;5.296;2023-03-30T08:28:22;20.8;;;5.7;;
64022;SDS011;50264;52.088;5.296;2023-03-30T08:31:35;22.2;;;5.6;;
64022;SDS011;50264;52.088;5.296;2023-03-30T08:33:13;23.8;;;6.2;;
64022;SDS011;50264;52.088;5.296;2023-03-30T08:34:51;22.1;;;6.1;;
64022;SDS011;50264;52.088;5.296;2023-03-30T08:38:04;23.7;;;6.3;;
64022;SDS011;50264;52.088;5.296;2023-03-30T08:39:42;32.1;;;6.1;;
64022;SDS011;50264;52.088;5.296;2023-03-30T08:41:31;17.0;;;5.2;;
64022;SDS011;50264;52.088;5.296;2023-03-30T08:44:56;26.7;;;5.4;;
64022;SDS011;50264;52.088;5.296;2023-03-30T08:46:35;23.3;;;6.2;;
64022;SDS011;50264;52.088;5.296;2023-03-30T08:48:14;22.2;;;5.9;;
64022;SDS011;50264;52.088;5.296;2023-03-30T08:49:54;24.0;;;5.8;;
64022;SDS011;50264;52.088;5.296;2023-03-30T08:51:42;19.61;;;5.6;;
64022;SDS011;50264;52.088;5.296;2023-03-30T08:54:59;20.8;;;5.7;;
64022;SDS011;50264;52.088;5.296;2023-03-30T08:56:39;22.7;;;5.6;;
64022;SDS011;50264;52.088;5.296;2023-03-30T08:58:35;21.2;;;5.7;;
64022;SDS011;50264;52.088;5.296;2023-03-30T09:00:23;18.7;;;5.5;;
64022;SDS011;50264;52.088;5.296;2023-03-30T09:02:12;23.8;;;5.6;;
64022;SDS011;50264;52.088;5.296;2023-03-30T09:03:59;23.8;;;5.6;;
64022;SDS011;50264;52.088;5.296;2023-03-30T09:07:30;21.3;;;5.7;;
64022;SDS011;50264;52.088;5.296;2023-03-30T09:09:15;17.3;;;5.3;;
64022;SDS011;50264;52.088;5.296;2023-03-30T09:10:56;23.2;;;6.1;;
64022;SDS011;50264;52.088;5.296;2023-03-30T09:12:37;21.2;;;5.6;;
64022;SDS011;50264;52.088;5.296;2023-03-30T09:14:20;24.2;;;5.8;;
64022;SDS011;50264;52.088;5.296;2023-03-30T09:17:54;26.6;;;5.6;;
64022;SDS011;50264;52.088;5.296;2023-03-30T09:19:40;22.9;;;6.1;;
64022;SDS011;50264;52.088;5.296;2023-03-30T09:21:26;22.1;;;5.7;;
64022;SDS011;50264;52.088;5.296;2023-03-30T09:23:07;22.5;;;6.5;;
64022;SDS011;50264;52.088;5.296;2023-03-30T09:24:50;26.7;;;6.5;;
64022;SDS011;50264;52.088;5.296;2023-03-30T09:28:19;24.6;;;5.9;;
64022;SDS011;50264;52.088;5.296;2023-03-30T09:30:06;26.3;;;6.0;;
64022;SDS011;50264;52.088;5.296;2023-03-30T09:31:54;25.8;;;6.0;;
64022;SDS011;50264;52.088;5.296;2023-03-30T09:33:40;23.6;;;6.7;;
64022;SDS011;50264;52.088;5.296;2023-03-30T09:35:22;22.9;;;6.6;;
64022;SDS011;50264;52.088;5.296;2023-03-30T09:38:46;29.2;;;6.1;;
64022;SDS011;50264;52.088;5.296;2023-03-30T09:40:27;25.6;;;6.4;;
64022;SDS011;50264;52.088;5.296;2023-03-30T09:42:17;20.3;;;6.7;;
64022;SDS011;50264;52.088;5.296;2023-03-30T09:44:02;32.1;;;7.6;;
64022;SDS011;50264;52.088;5.296;2023-03-30T09:45:49;25.5;;;6.8;;
64022;SDS011;50264;52.088;5.296;2023-03-30T09:49:11;36.31;;;7.9;;
64022;SDS011;50264;52.088;5.296;2023-03-30T09:50:50;26.5;;;5.6;;
64022;SDS011;50264;52.088;5.296;2023-03-30T09:52:29;26.0;;;6.5;;
64022;SDS011;50264;52.088;5.296;2023-03-30T09:54:10;27.6;;;6.9;;
64022;SDS011;50264;52.088;5.296;2023-03-30T09:57:34;26.2;;;6.9;;
64022;SDS011;50264;52.088;5.296;2023-03-30T09:59:20;25.2;;;6.8;;
64022;SDS011;50264;52.088;5.296;2023-03-30T10:01:06;31.7;;;7.0;;
64022;SDS011;50264;52.088;5.296;2023-03-30T10:02:50;25.8;;;6.6;;
64022;SDS011;50264;52.088;5.296;2023-03-30T10:04:32;32.21;;;7.5;;
64022;SDS011;50264;52.088;5.296;2023-03-30T10:07:53;29.2;;;6.4;;
64022;SDS011;50264;52.088;5.296;2023-03-30T10:09:33;26.1;;;6.8;;
64022;SDS011;50264;52.088;5.296;2023-03-30T10:11:21;31.2;;;6.8;;
64022;SDS011;50264;52.088;5.296;2023-03-30T10:13:14;37.0;;;7.3;;
64022;SDS011;50264;52.088;5.296;2023-03-30T10:16:33;29.2;;;7.0;;
64022;SDS011;50264;52.088;5.296;2023-03-30T10:18:18;23.2;;;6.8;;
64022;SDS011;50264;52.088;5.296;2023-03-30T10:20:24;25.9;;;6.6;;
64022;SDS011;50264;52.088;5.296;2023-03-30T10:22:03;31.0;;;7.9;;
64022;SDS011;50264;52.088;5.296;2023-03-30T10:24:16;31.3;;;7.7;;
64022;SDS011;50264;52.088;5.296;2023-03-30T10:25:59;29.3;;;7.6;;
64022;SDS011;50264;52.088;5.296;2023-03-30T10:27:39;33.4;;;7.6;;
64022;SDS011;50264;52.088;5.296;2023-03-30T10:30:58;30.6;;;7.3;;
64022;SDS011;50264;52.088;5.296;2023-03-30T10:32:39;27.2;;;6.7;;
64022;SDS011;50264;52.088;5.296;2023-03-30T10:34:22;28.7;;;8.0;;
64022;SDS011;50264;52.088;5.296;2023-03-30T10:36:12;28.7;;;8.0;;
64022;SDS011;50264;52.088;5.296;2023-03-30T10:39:33;26.3;;;7.1;;
64022;SDS011;50264;52.088;5.296;2023-03-30T10:41:12;33.6;;;7.1;;
64022;SDS011;50264;52.088;5.296;2023-03-30T10:42:53;28.8;;;7.3;;
64022;SDS011;50264;52.088;5.296;2023-03-30T10:44:33;35.0;;;7.5;;
64022;SDS011;50264;52.088;5.296;2023-03-30T10:47:57;36.4;;;7.4;;
64022;SDS011;50264;52.088;5.296;2023-03-30T10:49:49;35.5;;;7.2;;
64022;SDS011;50264;52.088;5.296;2023-03-30T10:51:42;32.3;;;7.4;;
64022;SDS011;50264;52.088;5.296;2023-03-30T10:53:32;32.3;;;7.4;;
64022;SDS011;50264;52.088;5.296;2023-03-30T10:55:22;22.7;;;7.4;;
64022;SDS011;50264;52.088;5.296;2023-03-30T10:57:07;24.6;;;6.5;;
64022;SDS011;50264;52.088;5.296;2023-03-30T11:00:50;27.6;;;6.8;;
64022;SDS011;50264;52.088;5.296;2023-03-30T11:02:50;34.1;;;7.6;;
64022;SDS011;50264;52.088;5.296;2023-03-30T11:04:40;30.6;;;6.8;;
64022;SDS011;50264;52.088;5.296;2023-03-30T11:06:20;26.8;;;6.4;;
64022;SDS011;50264;52.088;5.296;2023-03-30T11:08:03;30.5;;;7.5;;
64022;SDS011;50264;52.088;5.296;2023-03-30T11:11:30;32.9;;;7.0;;
64022;SDS011;50264;52.088;5.296;2023-03-30T11:14:55;32.0;;;7.1;;
64022;SDS011;50264;52.088;5.296;2023-03-30T11:16:40;26.0;;;6.3;;
64022;SDS011;50264;52.088;5.296;2023-03-30T11:18:24;24.5;;;6.0;;
64022;SDS011;50264;52.088;5.296;2023-03-30T11:20:16;29.9;;;7.1;;
64022;SDS011;50264;52.088;5.296;2023-03-30T11:21:59;25.7;;;6.7;;
64022;SDS011;50264;52.088;5.296;2023-03-30T11:25:29;28.6;;;6.5;;
64022;SDS011;50264;52.088;5.296;2023-03-30T11:27:13;28.4;;;6.3;;
64022;SDS011;50264;52.088;5.296;2023-03-30T11:28:58;28.9;;;6.9;;
64022;SDS011;50264;52.088;5.296;2023-03-30T11:30:46;21.4;;;5.9;;
64022;SDS011;50264;52.088;5.296;2023-03-30T11:32:30;24.6;;;6.3;;
64022;SDS011;50264;52.088;5.296;2023-03-30T11:36:02;28.1;;;6.4;;
64022;SDS011;50264;52.088;5.296;2023-03-30T11:37:51;18.5;;;5.4;;
64022;SDS011;50264;52.088;5.296;2023-03-30T11:39:35;28.8;;;6.0;;
64022;SDS011;50264;52.088;5.296;2023-03-30T11:41:19;21.4;;;5.5;;
64022;SDS011;50264;52.088;5.296;2023-03-30T11:43:02;22.3;;;6.4;;
64022;SDS011;50264;52.088;5.296;2023-03-30T11:46:18;28.0;;;6.6;;
64022;SDS011;50264;52.088;5.296;2023-03-30T11:48:06;30.5;;;6.7;;
64022;SDS011;50264;52.088;5.296;2023-03-30T11:50:06;25.4;;;5.9;;
64022;SDS011;50264;52.088;5.296;2023-03-30T11:52:02;23.8;;;6.1;;
64022;SDS011;50264;52.088;5.296;2023-03-30T11:53:52;27.9;;;6.6;;
64022;SDS011;50264;52.088;5.296;2023-03-30T11:55:43;32.3;;;6.4;;
64022;SDS011;50264;52.088;5.296;2023-03-30T11:57:30;29.0;;;6.6;;
64022;SDS011;50264;52.088;5.296;2023-03-30T12:01:09;32.1;;;6.9;;
64022;SDS011;50264;52.088;5.296;2023-03-30T12:03:11;23.5;;;6.2;;
64022;SDS011;50264;52.088;5.296;2023-03-30T12:04:59;22.7;;;5.7;;
64022;SDS011;50264;52.088;5.296;2023-03-30T12:06:42;24.4;;;5.8;;
64022;SDS011;50264;52.088;5.296;2023-03-30T12:08:36;22.8;;;5.8;;
64022;SDS011;50264;52.088;5.296;2023-03-30T12:10:34;33.6;;;6.9;;
64022;SDS011;50264;52.088;5.296;2023-03-30T12:12:17;31.4;;;6.1;;
64022;SDS011;50264;52.088;5.296;2023-03-30T12:16:07;27.4;;;6.5;;
64022;SDS011;50264;52.088;5.296;2023-03-30T12:17:51;29.9;;;6.0;;
64022;SDS011;50264;52.088;5.296;2023-03-30T12:19:36;21.3;;;6.0;;
64022;SDS011;50264;52.088;5.296;2023-03-30T12:21:24;21.3;;;6.0;;
64022;SDS011;50264;52.088;5.296;2023-03-30T12:23:12;24.6;;;6.6;;
64022;SDS011;50264;52.088;5.296;2023-03-30T12:25:00;33.1;;;6.9;;
64022;SDS011;50264;52.088;5.296;2023-03-30T12:26:48;24.3;;;6.3;;
64022;SDS011;50264;52.088;5.296;2023-03-30T12:30:22;23.4;;;6.3;;
64022;SDS011;50264;52.088;5.296;2023-03-30T12:32:04;35.1;;;7.5;;
64022;SDS011;50264;52.088;5.296;2023-03-30T12:33:54;35.5;;;6.7;;
64022;SDS011;50264;52.088;5.296;2023-03-30T12:35:45;26.2;;;6.9;;
64022;SDS011;50264;52.088;5.296;2023-03-30T12:37:31;24.4;;;6.2;;
64022;SDS011;50264;52.088;5.296;2023-03-30T12:41:01;26.0;;;7.3;;
64022;SDS011;50264;52.088;5.296;2023-03-30T12:42:44;22.5;;;6.1;;
64022;SDS011;50264;52.088;5.296;2023-03-30T12:44:40;31.3;;;7.0;;
64022;SDS011;50264;52.088;5.296;2023-03-30T12:46:28;29.6;;;6.1;;
64022;SDS011;50264;52.088;5.296;2023-03-30T12:48:16;23.5;;;7.0;;
64022;SDS011;50264;52.088;5.296;2023-03-30T12:50:21;25.6;;;6.1;;
64022;SDS011;50264;52.088;5.296;2023-03-30T12:52:23;26.5;;;6.3;;
64022;SDS011;50264;52.088;5.296;2023-03-30T12:54:19;25.7;;;5.5;;
64022;SDS011;50264;52.088;5.296;2023-03-30T12:56:42;35.0;;;7.0;;
64022;SDS011;50264;52.088;5.296;2023-03-30T12:58:39;25.5;;;6.6;;